sensor_id;sensor_type;location;lat;lon;timestamp;temperature;humidity
5059;DHT22;2548;52.050;11.036;2023-07-31T00:01:44;16.50;99.90
5059;DHT22;2548;52.050;11.036;2023-07-31T00:04:13;16.40;99.90
5059;DHT22;2548;52.050;11.036;2023-07-31T00:06:41;16.40;99.90
5059;DHT22;2548;52.050;11.036;2023-07-31T00:09:08;16.30;99.90
5059;DHT22;2548;52.050;11.036;2023-07-31T00:11:35;16.30;99.90
5059;DHT22;2548;52.050;11.036;2023-07-31T00:14:03;16.30;99.90
5059;DHT22;2548;52.050;11.036;2023-07-31T00:16:30;16.30;99.90
5059;DHT22;2548;52.050;11.036;2023-07-31T00:18:58;16.30;99.90
5059;DHT22;2548;52.050;11.036;2023-07-31T00:21:27;16.30;99.90
5059;DHT22;2548;52.050;11.036;2023-07-31T00:23:54;16.30;99.90
5059;DHT22;2548;52.050;11.036;2023-07-31T00:26:22;16.30;99.90
5059;DHT22;2548;52.050;11.036;2023-07-31T00:28:49;16.30;99.90
5059;DHT22;2548;52.050;11.036;2023-07-31T00:31:16;16.30;99.90
5059;DHT22;2548;52.050;11.036;2023-07-31T00:33:44;16.30;99.90
5059;DHT22;2548;52.050;11.036;2023-07-31T00:36:11;16.30;99.90
5059;DHT22;2548;52.050;11.036;2023-07-31T00:38:40;16.30;99.90
5059;DHT22;2548;52.050;11.036;2023-07-31T00:41:07;16.30;99.90
5059;DHT22;2548;52.050;11.036;2023-07-31T00:43:35;16.30;99.90
5059;DHT22;2548;52.050;11.036;2023-07-31T00:46:02;16.40;99.90
5059;DHT22;2548;52.050;11.036;2023-07-31T00:48:30;16.40;99.90
5059;DHT22;2548;52.050;11.036;2023-07-31T00:50:57;16.40;99.90
5059;DHT22;2548;52.050;11.036;2023-07-31T00:53:25;16.40;99.90
5059;DHT22;2548;52.050;11.036;2023-07-31T00:55:54;16.40;99.90
5059;DHT22;2548;52.050;11.036;2023-07-31T00:58:21;16.40;99.90
5059;DHT22;2548;52.050;11.036;2023-07-31T01:00:49;16.40;99.90
5059;DHT22;2548;52.050;11.036;2023-07-31T01:03:17;16.40;99.90
5059;DHT22;2548;52.050;11.036;2023-07-31T01:05:51;16.30;99.90
5059;DHT22;2548;52.050;11.036;2023-07-31T01:08:27;16.40;99.90
5059;DHT22;2548;52.050;11.036;2023-07-31T01:11:02;16.30;99.90
5059;DHT22;2548;52.050;11.036;2023-07-31T01:13:32;16.30;99.90
5059;DHT22;2548;52.050;11.036;2023-07-31T01:16:00;16.30;99.90
5059;DHT22;2548;52.050;11.036;2023-07-31T01:18:27;16.30;99.90
5059;DHT22;2548;52.050;11.036;2023-07-31T01:21:06;16.30;99.90
5059;DHT22;2548;52.050;11.036;2023-07-31T01:24:00;16.30;99.90
5059;DHT22;2548;52.050;11.036;2023-07-31T01:26:38;16.30;99.90
5059;DHT22;2548;52.050;11.036;2023-07-31T01:29:10;16.30;99.90
5059;DHT22;2548;52.050;11.036;2023-07-31T01:31:42;16.30;99.90
5059;DHT22;2548;52.050;11.036;2023-07-31T01:34:14;16.20;99.90
5059;DHT22;2548;52.050;11.036;2023-07-31T01:36:43;16.20;99.90
5059;DHT22;2548;52.050;11.036;2023-07-31T01:39:11;16.20;99.90
5059;DHT22;2548;52.050;11.036;2023-07-31T01:41:39;16.20;99.90
5059;DHT22;2548;52.050;11.036;2023-07-31T01:44:07;16.20;99.90
5059;DHT22;2548;52.050;11.036;2023-07-31T01:46:34;16.20;99.90
5059;DHT22;2548;52.050;11.036;2023-07-31T01:49:02;16.20;99.90
5059;DHT22;2548;52.050;11.036;2023-07-31T01:51:31;16.10;99.90
5059;DHT22;2548;52.050;11.036;2023-07-31T01:54:00;16.10;99.90
5059;DHT22;2548;52.050;11.036;2023-07-31T01:56:28;16.10;99.90
5059;DHT22;2548;52.050;11.036;2023-07-31T01:58:56;16.00;99.90
5059;DHT22;2548;52.050;11.036;2023-07-31T02:01:24;16.00;99.90
5059;DHT22;2548;52.050;11.036;2023-07-31T02:03:51;16.00;99.90
5059;DHT22;2548;52.050;11.036;2023-07-31T02:06:19;15.90;99.90
5059;DHT22;2548;52.050;11.036;2023-07-31T02:08:46;15.90;99.90
5059;DHT22;2548;52.050;11.036;2023-07-31T02:11:13;16.00;99.90
5059;DHT22;2548;52.050;11.036;2023-07-31T02:13:41;15.90;99.90
5059;DHT22;2548;52.050;11.036;2023-07-31T02:16:10;15.90;99.90
5059;DHT22;2548;52.050;11.036;2023-07-31T02:18:37;15.90;99.90
5059;DHT22;2548;52.050;11.036;2023-07-31T02:21:05;15.90;99.90
5059;DHT22;2548;52.050;11.036;2023-07-31T02:23:32;15.90;99.90
5059;DHT22;2548;52.050;11.036;2023-07-31T02:26:00;15.90;99.90
5059;DHT22;2548;52.050;11.036;2023-07-31T02:28:29;15.90;99.90
5059;DHT22;2548;52.050;11.036;2023-07-31T02:30:57;15.80;99.90
5059;DHT22;2548;52.050;11.036;2023-07-31T02:33:25;15.70;99.90
5059;DHT22;2548;52.050;11.036;2023-07-31T02:35:53;15.70;99.90
5059;DHT22;2548;52.050;11.036;2023-07-31T02:38:22;15.60;99.90
5059;DHT22;2548;52.050;11.036;2023-07-31T02:40:49;15.60;99.90
5059;DHT22;2548;52.050;11.036;2023-07-31T02:43:17;15.50;99.90
5059;DHT22;2548;52.050;11.036;2023-07-31T02:45:44;15.50;99.90
5059;DHT22;2548;52.050;11.036;2023-07-31T02:48:12;15.50;99.90
5059;DHT22;2548;52.050;11.036;2023-07-31T02:50:41;15.50;99.90
5059;DHT22;2548;52.050;11.036;2023-07-31T02:53:08;15.50;99.90
5059;DHT22;2548;52.050;11.036;2023-07-31T02:55:36;15.50;99.90
5059;DHT22;2548;52.050;11.036;2023-07-31T02:58:03;15.50;99.90
5059;DHT22;2548;52.050;11.036;2023-07-31T03:00:30;15.50;99.90
5059;DHT22;2548;52.050;11.036;2023-07-31T03:02:58;15.50;99.90
5059;DHT22;2548;52.050;11.036;2023-07-31T03:05:25;15.40;99.90
5059;DHT22;2548;52.050;11.036;2023-07-31T03:07:54;15.40;99.90
5059;DHT22;2548;52.050;11.036;2023-07-31T03:10:23;15.30;99.90
5059;DHT22;2548;52.050;11.036;2023-07-31T03:12:51;15.30;99.90
5059;DHT22;2548;52.050;11.036;2023-07-31T03:15:18;15.30;99.90
5059;DHT22;2548;52.050;11.036;2023-07-31T03:17:46;15.30;99.90
5059;DHT22;2548;52.050;11.036;2023-07-31T03:20:13;15.30;99.90
5059;DHT22;2548;52.050;11.036;2023-07-31T03:22:41;15.30;99.90
5059;DHT22;2548;52.050;11.036;2023-07-31T03:25:10;15.30;99.90
5059;DHT22;2548;52.050;11.036;2023-07-31T03:27:38;15.30;99.90
5059;DHT22;2548;52.050;11.036;2023-07-31T03:30:07;15.30;99.90
5059;DHT22;2548;52.050;11.036;2023-07-31T03:32:34;15.30;99.90
5059;DHT22;2548;52.050;11.036;2023-07-31T03:35:02;15.30;99.90
5059;DHT22;2548;52.050;11.036;2023-07-31T03:37:31;15.30;99.90
5059;DHT22;2548;52.050;11.036;2023-07-31T03:39:58;15.30;99.90
5059;DHT22;2548;52.050;11.036;2023-07-31T03:42:27;15.30;99.90
5059;DHT22;2548;52.050;11.036;2023-07-31T03:44:55;15.30;99.90
5059;DHT22;2548;52.050;11.036;2023-07-31T03:47:22;15.30;99.90
5059;DHT22;2548;52.050;11.036;2023-07-31T03:49:49;15.30;99.90
5059;DHT22;2548;52.050;11.036;2023-07-31T03:52:17;15.30;99.90
5059;DHT22;2548;52.050;11.036;2023-07-31T03:54:44;15.30;99.90
5059;DHT22;2548;52.050;11.036;2023-07-31T03:57:12;15.30;99.90
5059;DHT22;2548;52.050;11.036;2023-07-31T03:59:40;15.30;99.90
5059;DHT22;2548;52.050;11.036;2023-07-31T04:02:08;15.40;99.90
5059;DHT22;2548;52.050;11.036;2023-07-31T04:04:35;15.40;99.90
5059;DHT22;2548;52.050;11.036;2023-07-31T04:07:03;15.40;99.90
5059;DHT22;2548;52.050;11.036;2023-07-31T04:09:30;15.40;99.90
5059;DHT22;2548;52.050;11.036;2023-07-31T04:11:58;15.40;99.90
5059;DHT22;2548;52.050;11.036;2023-07-31T04:14:25;15.40;99.90
5059;DHT22;2548;52.050;11.036;2023-07-31T04:16:54;15.50;99.90
5059;DHT22;2548;52.050;11.036;2023-07-31T04:19:21;15.50;99.90
5059;DHT22;2548;52.050;11.036;2023-07-31T04:21:48;15.50;99.90
5059;DHT22;2548;52.050;11.036;2023-07-31T04:24:16;15.50;99.90
5059;DHT22;2548;52.050;11.036;2023-07-31T04:26:50;15.50;99.90
5059;DHT22;2548;52.050;11.036;2023-07-31T04:29:17;15.60;99.90
5059;DHT22;2548;52.050;11.036;2023-07-31T04:31:45;15.60;99.90
5059;DHT22;2548;52.050;11.036;2023-07-31T04:34:14;15.60;99.90
5059;DHT22;2548;52.050;11.036;2023-07-31T04:36:41;15.60;99.90
5059;DHT22;2548;52.050;11.036;2023-07-31T04:39:08;15.60;99.90
5059;DHT22;2548;52.050;11.036;2023-07-31T04:41:36;15.60;99.90
5059;DHT22;2548;52.050;11.036;2023-07-31T04:44:04;15.60;99.90
5059;DHT22;2548;52.050;11.036;2023-07-31T04:46:31;15.60;99.90
5059;DHT22;2548;52.050;11.036;2023-07-31T04:48:58;15.70;99.90
5059;DHT22;2548;52.050;11.036;2023-07-31T04:51:27;15.70;99.90
5059;DHT22;2548;52.050;11.036;2023-07-31T04:53:55;15.70;99.90
5059;DHT22;2548;52.050;11.036;2023-07-31T04:56:23;15.70;99.90
5059;DHT22;2548;52.050;11.036;2023-07-31T04:58:50;15.80;99.90
5059;DHT22;2548;52.050;11.036;2023-07-31T05:01:17;15.80;99.90
5059;DHT22;2548;52.050;11.036;2023-07-31T05:03:45;15.80;99.90
5059;DHT22;2548;52.050;11.036;2023-07-31T05:06:12;15.80;99.90
5059;DHT22;2548;52.050;11.036;2023-07-31T05:08:42;15.90;99.90
5059;DHT22;2548;52.050;11.036;2023-07-31T05:11:10;15.90;99.90
5059;DHT22;2548;52.050;11.036;2023-07-31T05:13:37;15.80;99.90
5059;DHT22;2548;52.050;11.036;2023-07-31T05:16:05;15.80;99.90
5059;DHT22;2548;52.050;11.036;2023-07-31T05:18:32;15.90;99.90
5059;DHT22;2548;52.050;11.036;2023-07-31T05:20:59;15.90;99.90
5059;DHT22;2548;52.050;11.036;2023-07-31T05:23:27;15.90;99.90
5059;DHT22;2548;52.050;11.036;2023-07-31T05:26:01;15.80;99.90
5059;DHT22;2548;52.050;11.036;2023-07-31T05:28:29;15.70;99.90
5059;DHT22;2548;52.050;11.036;2023-07-31T05:30:59;15.70;99.90
5059;DHT22;2548;52.050;11.036;2023-07-31T05:33:27;15.70;99.90
5059;DHT22;2548;52.050;11.036;2023-07-31T05:35:54;15.70;99.90
5059;DHT22;2548;52.050;11.036;2023-07-31T05:38:22;15.60;99.90
5059;DHT22;2548;52.050;11.036;2023-07-31T05:40:50;15.60;99.90
5059;DHT22;2548;52.050;11.036;2023-07-31T05:43:18;15.50;99.90
5059;DHT22;2548;52.050;11.036;2023-07-31T05:45:46;15.50;99.90
5059;DHT22;2548;52.050;11.036;2023-07-31T05:48:13;15.40;99.90
5059;DHT22;2548;52.050;11.036;2023-07-31T05:50:41;15.40;99.90
5059;DHT22;2548;52.050;11.036;2023-07-31T05:53:08;15.40;99.90
5059;DHT22;2548;52.050;11.036;2023-07-31T05:55:36;15.40;99.90
5059;DHT22;2548;52.050;11.036;2023-07-31T05:58:03;15.40;99.90
5059;DHT22;2548;52.050;11.036;2023-07-31T06:00:32;15.40;99.90
5059;DHT22;2548;52.050;11.036;2023-07-31T06:03:00;15.40;99.90
5059;DHT22;2548;52.050;11.036;2023-07-31T06:05:27;15.50;99.90
5059;DHT22;2548;52.050;11.036;2023-07-31T06:07:56;15.50;99.90
5059;DHT22;2548;52.050;11.036;2023-07-31T06:10:24;15.50;99.90
5059;DHT22;2548;52.050;11.036;2023-07-31T06:12:52;15.60;99.90
5059;DHT22;2548;52.050;11.036;2023-07-31T06:15:20;15.60;99.90
5059;DHT22;2548;52.050;11.036;2023-07-31T06:17:48;15.60;99.90
5059;DHT22;2548;52.050;11.036;2023-07-31T06:20:16;15.70;99.90
5059;DHT22;2548;52.050;11.036;2023-07-31T06:22:43;15.70;99.90
5059;DHT22;2548;52.050;11.036;2023-07-31T06:25:12;15.80;99.90
5059;DHT22;2548;52.050;11.036;2023-07-31T06:27:39;15.80;99.90
5059;DHT22;2548;52.050;11.036;2023-07-31T06:30:07;15.80;99.90
5059;DHT22;2548;52.050;11.036;2023-07-31T06:32:35;15.90;99.90
5059;DHT22;2548;52.050;11.036;2023-07-31T06:35:04;15.90;99.90
5059;DHT22;2548;52.050;11.036;2023-07-31T06:37:32;16.00;99.90
5059;DHT22;2548;52.050;11.036;2023-07-31T06:39:59;16.00;99.90
5059;DHT22;2548;52.050;11.036;2023-07-31T06:42:27;16.00;99.90
5059;DHT22;2548;52.050;11.036;2023-07-31T06:44:54;16.00;99.90
5059;DHT22;2548;52.050;11.036;2023-07-31T06:47:21;16.10;99.90
5059;DHT22;2548;52.050;11.036;2023-07-31T06:49:49;16.10;99.90
5059;DHT22;2548;52.050;11.036;2023-07-31T06:52:17;16.20;99.90
5059;DHT22;2548;52.050;11.036;2023-07-31T06:55:00;16.30;99.90
5059;DHT22;2548;52.050;11.036;2023-07-31T06:57:29;16.30;99.90
5059;DHT22;2548;52.050;11.036;2023-07-31T06:59:56;16.40;99.90
5059;DHT22;2548;52.050;11.036;2023-07-31T07:02:24;16.40;99.90
5059;DHT22;2548;52.050;11.036;2023-07-31T07:04:51;16.50;99.90
5059;DHT22;2548;52.050;11.036;2023-07-31T07:07:20;16.50;99.90
5059;DHT22;2548;52.050;11.036;2023-07-31T07:09:47;16.60;99.90
5059;DHT22;2548;52.050;11.036;2023-07-31T07:12:15;16.60;99.90
5059;DHT22;2548;52.050;11.036;2023-07-31T07:14:42;16.60;99.90
5059;DHT22;2548;52.050;11.036;2023-07-31T07:17:12;16.60;99.90
5059;DHT22;2548;52.050;11.036;2023-07-31T07:19:40;16.70;99.90
5059;DHT22;2548;52.050;11.036;2023-07-31T07:22:08;16.70;99.90
5059;DHT22;2548;52.050;11.036;2023-07-31T07:24:37;16.80;99.90
5059;DHT22;2548;52.050;11.036;2023-07-31T07:27:05;16.90;99.90
5059;DHT22;2548;52.050;11.036;2023-07-31T07:29:33;17.00;99.90
5059;DHT22;2548;52.050;11.036;2023-07-31T07:32:01;17.10;99.90
5059;DHT22;2548;52.050;11.036;2023-07-31T07:34:29;17.20;99.90
5059;DHT22;2548;52.050;11.036;2023-07-31T07:36:56;17.30;99.90
5059;DHT22;2548;52.050;11.036;2023-07-31T07:39:24;17.40;99.90
5059;DHT22;2548;52.050;11.036;2023-07-31T07:41:53;17.40;99.90
5059;DHT22;2548;52.050;11.036;2023-07-31T07:44:20;17.50;99.90
5059;DHT22;2548;52.050;11.036;2023-07-31T07:46:48;17.60;99.90
5059;DHT22;2548;52.050;11.036;2023-07-31T07:49:15;17.60;99.90
5059;DHT22;2548;52.050;11.036;2023-07-31T07:51:43;17.70;99.90
5059;DHT22;2548;52.050;11.036;2023-07-31T07:54:10;17.80;99.90
5059;DHT22;2548;52.050;11.036;2023-07-31T07:56:37;17.80;99.90
5059;DHT22;2548;52.050;11.036;2023-07-31T07:59:06;17.90;99.90
5059;DHT22;2548;52.050;11.036;2023-07-31T08:01:34;17.90;99.90
5059;DHT22;2548;52.050;11.036;2023-07-31T08:04:01;18.00;99.90
5059;DHT22;2548;52.050;11.036;2023-07-31T08:06:28;18.00;99.90
5059;DHT22;2548;52.050;11.036;2023-07-31T08:08:56;18.00;99.90
5059;DHT22;2548;52.050;11.036;2023-07-31T08:11:24;18.00;99.90
5059;DHT22;2548;52.050;11.036;2023-07-31T08:13:51;18.00;99.90
5059;DHT22;2548;52.050;11.036;2023-07-31T08:16:20;17.90;99.90
5059;DHT22;2548;52.050;11.036;2023-07-31T08:18:47;17.90;99.90
5059;DHT22;2548;52.050;11.036;2023-07-31T08:21:15;17.90;99.90
5059;DHT22;2548;52.050;11.036;2023-07-31T08:23:43;18.00;99.90
5059;DHT22;2548;52.050;11.036;2023-07-31T08:26:14;18.00;99.90
5059;DHT22;2548;52.050;11.036;2023-07-31T08:28:42;18.10;99.90
5059;DHT22;2548;52.050;11.036;2023-07-31T08:31:09;18.10;99.90
5059;DHT22;2548;52.050;11.036;2023-07-31T08:33:39;18.20;99.90
5059;DHT22;2548;52.050;11.036;2023-07-31T08:36:07;18.20;99.90
5059;DHT22;2548;52.050;11.036;2023-07-31T08:38:35;18.30;99.90
5059;DHT22;2548;52.050;11.036;2023-07-31T08:41:03;18.40;99.90
5059;DHT22;2548;52.050;11.036;2023-07-31T08:43:31;18.50;99.90
5059;DHT22;2548;52.050;11.036;2023-07-31T08:46:00;18.60;99.90
5059;DHT22;2548;52.050;11.036;2023-07-31T08:48:28;18.60;99.90
5059;DHT22;2548;52.050;11.036;2023-07-31T08:50:58;18.60;99.90
5059;DHT22;2548;52.050;11.036;2023-07-31T08:53:25;18.60;99.90
5059;DHT22;2548;52.050;11.036;2023-07-31T08:55:53;18.60;99.90
5059;DHT22;2548;52.050;11.036;2023-07-31T08:58:21;18.60;99.90
5059;DHT22;2548;52.050;11.036;2023-07-31T09:00:49;18.50;99.90
5059;DHT22;2548;52.050;11.036;2023-07-31T09:03:18;18.50;99.90
5059;DHT22;2548;52.050;11.036;2023-07-31T09:05:47;18.40;99.90
5059;DHT22;2548;52.050;11.036;2023-07-31T09:08:19;18.40;99.90
5059;DHT22;2548;52.050;11.036;2023-07-31T09:10:47;18.30;99.90
5059;DHT22;2548;52.050;11.036;2023-07-31T09:13:16;18.20;99.90
5059;DHT22;2548;52.050;11.036;2023-07-31T09:15:46;18.20;99.90
5059;DHT22;2548;52.050;11.036;2023-07-31T09:18:13;18.10;99.90
5059;DHT22;2548;52.050;11.036;2023-07-31T09:20:44;18.10;99.90
5059;DHT22;2548;52.050;11.036;2023-07-31T09:23:13;18.20;99.90
5059;DHT22;2548;52.050;11.036;2023-07-31T09:25:45;18.20;99.90
5059;DHT22;2548;52.050;11.036;2023-07-31T09:28:12;18.30;99.90
5059;DHT22;2548;52.050;11.036;2023-07-31T09:30:46;18.20;99.90
5059;DHT22;2548;52.050;11.036;2023-07-31T09:33:14;18.30;99.90
5059;DHT22;2548;52.050;11.036;2023-07-31T09:35:42;18.30;99.90
5059;DHT22;2548;52.050;11.036;2023-07-31T09:38:11;18.30;99.90
5059;DHT22;2548;52.050;11.036;2023-07-31T09:40:40;18.30;99.90
5059;DHT22;2548;52.050;11.036;2023-07-31T09:43:11;18.30;99.90
5059;DHT22;2548;52.050;11.036;2023-07-31T09:45:40;18.40;99.90
5059;DHT22;2548;52.050;11.036;2023-07-31T09:48:09;18.40;99.90
5059;DHT22;2548;52.050;11.036;2023-07-31T09:50:37;18.50;99.90
5059;DHT22;2548;52.050;11.036;2023-07-31T09:53:07;18.50;99.90
5059;DHT22;2548;52.050;11.036;2023-07-31T09:55:34;18.60;99.90
5059;DHT22;2548;52.050;11.036;2023-07-31T09:58:04;18.50;99.90
5059;DHT22;2548;52.050;11.036;2023-07-31T10:00:34;18.50;99.90
5059;DHT22;2548;52.050;11.036;2023-07-31T10:03:04;18.50;99.90
5059;DHT22;2548;52.050;11.036;2023-07-31T10:05:36;18.50;99.90
5059;DHT22;2548;52.050;11.036;2023-07-31T10:08:06;18.50;99.90
5059;DHT22;2548;52.050;11.036;2023-07-31T10:10:36;18.50;99.90
5059;DHT22;2548;52.050;11.036;2023-07-31T10:13:04;18.50;99.90
5059;DHT22;2548;52.050;11.036;2023-07-31T10:15:34;18.50;99.90
5059;DHT22;2548;52.050;11.036;2023-07-31T10:18:06;18.60;99.90
5059;DHT22;2548;52.050;11.036;2023-07-31T10:20:34;18.60;99.90
5059;DHT22;2548;52.050;11.036;2023-07-31T10:23:01;18.60;99.90
5059;DHT22;2548;52.050;11.036;2023-07-31T10:25:29;18.60;99.90
5059;DHT22;2548;52.050;11.036;2023-07-31T10:27:57;18.80;99.90
5059;DHT22;2548;52.050;11.036;2023-07-31T10:30:29;19.00;99.90
5059;DHT22;2548;52.050;11.036;2023-07-31T10:32:58;19.10;99.90
5059;DHT22;2548;52.050;11.036;2023-07-31T10:35:27;19.10;99.90
5059;DHT22;2548;52.050;11.036;2023-07-31T10:37:55;19.10;99.90
5059;DHT22;2548;52.050;11.036;2023-07-31T10:40:25;19.20;99.90
5059;DHT22;2548;52.050;11.036;2023-07-31T10:42:54;19.20;99.90
5059;DHT22;2548;52.050;11.036;2023-07-31T10:45:25;19.20;99.90
5059;DHT22;2548;52.050;11.036;2023-07-31T10:48:00;19.40;99.90
5059;DHT22;2548;52.050;11.036;2023-07-31T10:50:28;19.50;99.90
5059;DHT22;2548;52.050;11.036;2023-07-31T10:52:59;19.60;99.90
5059;DHT22;2548;52.050;11.036;2023-07-31T10:55:30;19.60;99.90
5059;DHT22;2548;52.050;11.036;2023-07-31T10:58:05;19.50;99.90
5059;DHT22;2548;52.050;11.036;2023-07-31T11:00:33;19.50;99.90
5059;DHT22;2548;52.050;11.036;2023-07-31T11:03:03;19.50;99.90
5059;DHT22;2548;52.050;11.036;2023-07-31T11:05:48;19.60;99.90
5059;DHT22;2548;52.050;11.036;2023-07-31T11:08:18;19.60;99.90
5059;DHT22;2548;52.050;11.036;2023-07-31T11:10:47;19.70;99.90
5059;DHT22;2548;52.050;11.036;2023-07-31T11:13:15;19.70;99.90
5059;DHT22;2548;52.050;11.036;2023-07-31T11:15:42;19.70;99.90
5059;DHT22;2548;52.050;11.036;2023-07-31T11:18:11;19.80;99.90
5059;DHT22;2548;52.050;11.036;2023-07-31T11:20:39;19.80;99.90
5059;DHT22;2548;52.050;11.036;2023-07-31T11:23:08;19.80;99.90
5059;DHT22;2548;52.050;11.036;2023-07-31T11:25:37;20.00;99.90
5059;DHT22;2548;52.050;11.036;2023-07-31T11:28:08;20.10;99.90
5059;DHT22;2548;52.050;11.036;2023-07-31T11:30:36;20.10;99.90
5059;DHT22;2548;52.050;11.036;2023-07-31T11:33:04;20.10;99.90
5059;DHT22;2548;52.050;11.036;2023-07-31T11:35:40;20.20;99.90
5059;DHT22;2548;52.050;11.036;2023-07-31T11:38:08;20.20;99.90
5059;DHT22;2548;52.050;11.036;2023-07-31T11:40:41;20.30;99.90
5059;DHT22;2548;52.050;11.036;2023-07-31T11:43:09;20.30;99.90
5059;DHT22;2548;52.050;11.036;2023-07-31T11:45:38;20.40;99.90
5059;DHT22;2548;52.050;11.036;2023-07-31T11:48:07;20.50;99.90
5059;DHT22;2548;52.050;11.036;2023-07-31T11:50:39;20.70;99.90
5059;DHT22;2548;52.050;11.036;2023-07-31T11:53:08;21.10;99.90
5059;DHT22;2548;52.050;11.036;2023-07-31T11:55:36;21.30;99.90
5059;DHT22;2548;52.050;11.036;2023-07-31T11:58:03;21.60;99.90
5059;DHT22;2548;52.050;11.036;2023-07-31T12:00:31;21.90;99.90
5059;DHT22;2548;52.050;11.036;2023-07-31T12:02:59;22.20;99.90
5059;DHT22;2548;52.050;11.036;2023-07-31T12:05:26;22.30;99.90
5059;DHT22;2548;52.050;11.036;2023-07-31T12:07:56;22.40;99.90
5059;DHT22;2548;52.050;11.036;2023-07-31T12:10:29;22.40;99.90
5059;DHT22;2548;52.050;11.036;2023-07-31T12:13:02;22.40;99.90
5059;DHT22;2548;52.050;11.036;2023-07-31T12:15:34;22.20;99.90
5059;DHT22;2548;52.050;11.036;2023-07-31T12:18:04;22.10;99.90
5059;DHT22;2548;52.050;11.036;2023-07-31T12:20:32;22.00;99.90
5059;DHT22;2548;52.050;11.036;2023-07-31T12:23:02;21.90;99.90
5059;DHT22;2548;52.050;11.036;2023-07-31T12:25:31;21.70;99.90
5059;DHT22;2548;52.050;11.036;2023-07-31T12:28:04;21.50;99.90
5059;DHT22;2548;52.050;11.036;2023-07-31T12:30:33;21.40;99.90
5059;DHT22;2548;52.050;11.036;2023-07-31T12:33:05;21.20;99.90
5059;DHT22;2548;52.050;11.036;2023-07-31T12:35:37;21.20;99.90
5059;DHT22;2548;52.050;11.036;2023-07-31T12:38:06;21.10;99.90
5059;DHT22;2548;52.050;11.036;2023-07-31T12:40:33;21.10;99.90
5059;DHT22;2548;52.050;11.036;2023-07-31T12:43:01;21.20;99.90
5059;DHT22;2548;52.050;11.036;2023-07-31T12:45:30;21.20;99.90
5059;DHT22;2548;52.050;11.036;2023-07-31T12:47:58;21.20;99.90
5059;DHT22;2548;52.050;11.036;2023-07-31T12:50:25;21.20;99.90
5059;DHT22;2548;52.050;11.036;2023-07-31T12:52:54;21.10;99.90
5059;DHT22;2548;52.050;11.036;2023-07-31T12:55:23;21.10;99.90
5059;DHT22;2548;52.050;11.036;2023-07-31T12:57:51;21.00;99.90
5059;DHT22;2548;52.050;11.036;2023-07-31T13:00:18;21.00;99.90
5059;DHT22;2548;52.050;11.036;2023-07-31T13:02:46;21.10;99.90
5059;DHT22;2548;52.050;11.036;2023-07-31T13:05:13;21.10;99.90
5059;DHT22;2548;52.050;11.036;2023-07-31T13:07:41;21.10;99.90
5059;DHT22;2548;52.050;11.036;2023-07-31T13:10:09;21.20;99.90
5059;DHT22;2548;52.050;11.036;2023-07-31T13:12:38;21.30;99.90
5059;DHT22;2548;52.050;11.036;2023-07-31T13:15:06;21.40;99.90
5059;DHT22;2548;52.050;11.036;2023-07-31T13:17:34;21.40;99.90
5059;DHT22;2548;52.050;11.036;2023-07-31T13:20:02;21.50;99.90
5059;DHT22;2548;52.050;11.036;2023-07-31T13:22:31;21.50;99.90
5059;DHT22;2548;52.050;11.036;2023-07-31T13:24:58;21.60;99.90
5059;DHT22;2548;52.050;11.036;2023-07-31T13:27:25;21.70;99.90
5059;DHT22;2548;52.050;11.036;2023-07-31T13:29:54;21.70;99.90
5059;DHT22;2548;52.050;11.036;2023-07-31T13:32:22;21.70;99.90
5059;DHT22;2548;52.050;11.036;2023-07-31T13:34:50;21.80;99.90
5059;DHT22;2548;52.050;11.036;2023-07-31T13:37:17;21.70;99.90
5059;DHT22;2548;52.050;11.036;2023-07-31T13:39:44;21.60;99.90
5059;DHT22;2548;52.050;11.036;2023-07-31T13:42:12;21.60;99.90
5059;DHT22;2548;52.050;11.036;2023-07-31T13:44:39;21.60;99.90
5059;DHT22;2548;52.050;11.036;2023-07-31T13:47:09;21.60;99.90
5059;DHT22;2548;52.050;11.036;2023-07-31T13:49:37;21.70;99.90
5059;DHT22;2548;52.050;11.036;2023-07-31T13:52:05;21.70;99.90
5059;DHT22;2548;52.050;11.036;2023-07-31T13:54:33;21.60;99.90
5059;DHT22;2548;52.050;11.036;2023-07-31T13:57:00;21.60;99.90
5059;DHT22;2548;52.050;11.036;2023-07-31T13:59:28;21.50;99.90
5059;DHT22;2548;52.050;11.036;2023-07-31T14:01:55;21.50;99.90
5059;DHT22;2548;52.050;11.036;2023-07-31T14:04:24;21.50;99.90
5059;DHT22;2548;52.050;11.036;2023-07-31T14:06:52;21.60;99.90
5059;DHT22;2548;52.050;11.036;2023-07-31T14:09:19;21.50;99.90
5059;DHT22;2548;52.050;11.036;2023-07-31T14:11:47;21.50;99.90
5059;DHT22;2548;52.050;11.036;2023-07-31T14:14:14;21.50;99.90
5059;DHT22;2548;52.050;11.036;2023-07-31T14:16:41;21.50;99.90
5059;DHT22;2548;52.050;11.036;2023-07-31T14:19:09;21.40;99.90
5059;DHT22;2548;52.050;11.036;2023-07-31T14:21:38;21.40;99.90
5059;DHT22;2548;52.050;11.036;2023-07-31T14:24:05;21.30;99.90
5059;DHT22;2548;52.050;11.036;2023-07-31T14:26:32;21.20;99.90
5059;DHT22;2548;52.050;11.036;2023-07-31T14:29:00;21.20;99.90
5059;DHT22;2548;52.050;11.036;2023-07-31T14:31:28;21.20;99.90
5059;DHT22;2548;52.050;11.036;2023-07-31T14:33:55;21.10;99.90
5059;DHT22;2548;52.050;11.036;2023-07-31T14:36:23;21.10;99.90
5059;DHT22;2548;52.050;11.036;2023-07-31T14:38:52;21.10;99.90
5059;DHT22;2548;52.050;11.036;2023-07-31T14:41:19;21.00;99.90
5059;DHT22;2548;52.050;11.036;2023-07-31T14:43:47;21.00;99.90
5059;DHT22;2548;52.050;11.036;2023-07-31T14:46:14;21.00;99.90
5059;DHT22;2548;52.050;11.036;2023-07-31T14:48:42;20.90;99.90
5059;DHT22;2548;52.050;11.036;2023-07-31T14:51:09;20.90;99.90
5059;DHT22;2548;52.050;11.036;2023-07-31T14:53:36;20.80;99.90
5059;DHT22;2548;52.050;11.036;2023-07-31T14:56:05;20.70;99.90
5059;DHT22;2548;52.050;11.036;2023-07-31T14:58:33;20.50;99.90
5059;DHT22;2548;52.050;11.036;2023-07-31T15:01:00;20.50;99.90
5059;DHT22;2548;52.050;11.036;2023-07-31T15:03:28;20.40;99.90
5059;DHT22;2548;52.050;11.036;2023-07-31T15:05:55;20.40;99.90
5059;DHT22;2548;52.050;11.036;2023-07-31T15:08:23;20.40;99.90
5059;DHT22;2548;52.050;11.036;2023-07-31T15:10:50;20.40;99.90
5059;DHT22;2548;52.050;11.036;2023-07-31T15:13:24;20.40;99.90
5059;DHT22;2548;52.050;11.036;2023-07-31T15:15:52;20.40;99.90
5059;DHT22;2548;52.050;11.036;2023-07-31T15:18:19;20.50;99.90
5059;DHT22;2548;52.050;11.036;2023-07-31T15:20:47;20.60;99.90
5059;DHT22;2548;52.050;11.036;2023-07-31T15:23:14;20.70;99.90
5059;DHT22;2548;52.050;11.036;2023-07-31T15:25:42;20.80;99.90
5059;DHT22;2548;52.050;11.036;2023-07-31T15:28:10;20.90;99.90
5059;DHT22;2548;52.050;11.036;2023-07-31T15:30:39;21.00;99.90
5059;DHT22;2548;52.050;11.036;2023-07-31T15:33:06;21.10;99.90
5059;DHT22;2548;52.050;11.036;2023-07-31T15:35:34;21.20;99.90
5059;DHT22;2548;52.050;11.036;2023-07-31T15:38:01;21.20;99.90
5059;DHT22;2548;52.050;11.036;2023-07-31T15:40:29;21.20;99.90
5059;DHT22;2548;52.050;11.036;2023-07-31T15:42:56;21.20;99.90
5059;DHT22;2548;52.050;11.036;2023-07-31T15:45:23;21.20;99.90
5059;DHT22;2548;52.050;11.036;2023-07-31T15:47:52;21.20;99.90
5059;DHT22;2548;52.050;11.036;2023-07-31T15:50:20;21.20;99.90
5059;DHT22;2548;52.050;11.036;2023-07-31T15:52:47;21.20;99.90